createdAt,value
2023-01-08T00:05:01.103Z,3.76
2023-01-08T00:10:04.374Z,3.77
2023-01-08T00:15:07.730Z,3.75
2023-01-08T00:20:10.960Z,3.77
2023-01-08T00:25:13.962Z,3.80
2023-01-08T00:30:16.756Z,3.81
2023-01-08T00:35:19.570Z,3.82
2023-01-08T00:40:22.268Z,3.83
2023-01-08T00:45:24.962Z,3.86
2023-01-08T00:50:28.052Z,3.87
2023-01-08T00:55:30.945Z,3.86
2023-01-08T01:00:33.638Z,3.87
2023-01-08T01:05:36.426Z,3.88
2023-01-08T01:10:40.117Z,3.92
2023-01-08T01:15:42.902Z,3.95
2023-01-08T01:20:45.623Z,3.93
2023-01-08T01:25:48.302Z,3.94
2023-01-08T01:30:56.482Z,3.96
2023-01-08T01:36:01.077Z,3.98
2023-01-08T01:41:04.372Z,3.99
2023-01-08T01:46:16.979Z,3.99
2023-01-08T01:51:20.745Z,3.98
2023-01-08T01:56:23.744Z,3.95
2023-01-08T02:01:28.282Z,3.93
2023-01-08T02:06:56.377Z,3.92
2023-01-08T02:12:16.546Z,3.89
2023-01-08T02:18:11.867Z,3.88
2023-01-08T02:23:23.643Z,3.89
2023-01-08T02:28:28.756Z,3.92
2023-01-08T02:33:32.585Z,3.96
2023-01-08T02:38:35.633Z,3.96
2023-01-08T02:43:45.382Z,3.91
2023-01-08T02:48:52.978Z,3.88
2023-01-08T02:54:01.823Z,3.89
2023-01-08T02:59:07.373Z,3.89
2023-01-08T03:04:16.182Z,3.87
2023-01-08T03:09:19.536Z,3.85
2023-01-08T03:14:40.068Z,3.85
2023-01-08T03:19:54.905Z,3.84
2023-01-08T03:24:59.510Z,3.82
2023-01-08T03:30:05.061Z,3.80
2023-01-08T03:35:12.082Z,3.78
2023-01-08T03:40:23.853Z,3.77
2023-01-08T03:45:30.271Z,3.75
2023-01-08T03:50:33.480Z,3.74
2023-01-08T03:55:36.172Z,3.75
2023-01-08T04:00:39.656Z,3.76
2023-01-08T04:05:42.396Z,3.78
2023-01-08T04:10:45.140Z,3.79
2023-01-08T04:15:51.513Z,3.80
2023-01-08T04:20:54.283Z,3.80
2023-01-08T04:25:57.085Z,3.81
2023-01-08T04:30:59.928Z,3.80
2023-01-08T04:36:04.054Z,3.77
2023-01-08T04:41:06.806Z,3.77
2023-01-08T04:46:09.785Z,3.75
2023-01-08T04:51:12.714Z,3.73
2023-01-08T04:56:15.528Z,3.72
2023-01-08T05:01:26.474Z,3.73
2023-01-08T05:06:31.087Z,3.71
2023-01-08T05:11:35.622Z,3.69
2023-01-08T05:16:38.392Z,3.69
2023-01-08T05:21:41.216Z,3.69
2023-01-08T05:26:43.897Z,3.67
2023-01-08T05:31:46.795Z,3.64
2023-01-08T05:36:49.499Z,3.62
2023-01-08T05:41:52.215Z,3.60
2023-01-08T05:46:55.002Z,3.60
2023-01-08T05:51:57.868Z,3.59
2023-01-08T05:57:00.618Z,3.58
2023-01-08T06:02:03.321Z,3.60
2023-01-08T06:07:06.007Z,3.59
2023-01-08T06:12:08.715Z,3.58
2023-01-08T06:17:11.404Z,3.57
2023-01-08T06:22:14.301Z,3.58
2023-01-08T06:27:17.015Z,3.58
2023-01-08T06:32:19.667Z,3.58
2023-01-08T06:37:22.313Z,3.58
2023-01-08T06:42:25.120Z,3.59
2023-01-08T06:47:27.816Z,3.56
2023-01-08T06:52:30.517Z,3.56
2023-01-08T06:57:33.315Z,3.55
2023-01-08T07:02:36.289Z,3.54
2023-01-08T07:07:39.327Z,3.54
2023-01-08T07:12:42.023Z,3.55
2023-01-08T07:17:44.730Z,3.57
2023-01-08T07:22:47.422Z,3.59
2023-01-08T07:27:50.124Z,3.64
2023-01-08T07:32:52.880Z,3.67
2023-01-08T07:37:56.260Z,3.71
2023-01-08T07:43:00.441Z,3.74
2023-01-08T07:48:03.269Z,3.78
2023-01-08T07:53:05.937Z,3.83
2023-01-08T07:58:11.136Z,3.85
2023-01-08T08:03:13.881Z,3.86
2023-01-08T08:08:16.950Z,3.85
2023-01-08T08:13:19.744Z,3.80
2023-01-08T08:18:22.539Z,3.77
2023-01-08T08:23:25.858Z,3.73
2023-01-08T08:28:28.656Z,3.71
2023-01-08T08:33:31.436Z,3.69
2023-01-08T08:38:34.155Z,3.67
2023-01-08T08:43:36.957Z,3.64
2023-01-08T08:48:40.349Z,3.61
2023-01-08T08:53:43.175Z,3.59
2023-01-08T08:58:45.853Z,3.56
2023-01-08T09:03:48.672Z,3.53
2023-01-08T09:08:51.441Z,3.55
2023-01-08T09:13:54.258Z,3.55
2023-01-08T09:18:57.015Z,3.54
2023-01-08T09:23:59.981Z,3.55
2023-01-08T09:29:02.776Z,3.57
2023-01-08T09:34:05.477Z,3.59
2023-01-08T09:39:08.383Z,3.62
2023-01-08T09:44:16.220Z,3.61
2023-01-08T09:49:29.440Z,3.61
2023-01-08T09:54:32.844Z,3.62
2023-01-08T09:59:35.665Z,3.64
2023-01-08T10:04:38.381Z,3.67
2023-01-08T10:09:41.155Z,3.68
2023-01-08T10:14:49.941Z,3.70
2023-01-08T10:19:53.331Z,3.68
2023-01-08T10:25:06.058Z,3.68
2023-01-08T10:30:16.586Z,3.70
2023-01-08T10:35:22.212Z,3.72
2023-01-08T10:40:34.652Z,3.75
2023-01-08T10:45:37.562Z,3.75
2023-01-08T10:50:40.405Z,3.77
2023-01-08T10:55:43.089Z,3.81
2023-01-08T11:00:46.188Z,3.82
2023-01-08T11:05:50.287Z,3.85
2023-01-08T11:11:18.889Z,3.90
2023-01-08T11:16:23.920Z,3.89
2023-01-08T11:21:32.068Z,3.90
2023-01-08T11:26:36.299Z,3.91
2023-01-08T11:31:44.308Z,3.91
2023-01-08T11:36:53.030Z,3.91
2023-01-08T11:42:09.507Z,3.95
2023-01-08T11:47:27.554Z,3.98
2023-01-08T11:53:08.641Z,3.98
2023-01-08T11:58:24.665Z,3.99
2023-01-08T12:04:03.898Z,3.97
2023-01-08T12:09:35.594Z,3.96
2023-01-08T12:15:02.252Z,3.97
2023-01-08T12:20:07.587Z,3.95
2023-01-08T12:25:38.173Z,3.94
2023-01-08T12:31:05.579Z,3.94
2023-01-08T12:36:18.900Z,3.94
2023-01-08T12:41:24.703Z,3.94
2023-01-08T12:46:34.227Z,3.94
2023-01-08T12:51:54.101Z,3.94
2023-01-08T12:57:14.617Z,3.93
2023-01-08T13:02:36.872Z,3.93
2023-01-08T13:07:45.645Z,3.93
2023-01-08T13:12:52.661Z,3.93
2023-01-08T13:17:58.800Z,3.94
2023-01-08T13:23:04.354Z,3.94
2023-01-08T13:28:25.938Z,3.89
2023-01-08T13:33:34.370Z,3.87
2023-01-08T13:38:37.074Z,3.83
2023-01-08T13:43:41.996Z,3.83
2023-01-08T13:48:55.197Z,3.82
2023-01-08T13:54:07.248Z,3.81
2023-01-08T13:59:42.583Z,3.82
2023-01-08T14:04:49.760Z,3.79
2023-01-08T14:09:53.051Z,3.80
2023-01-08T14:14:59.887Z,3.81
2023-01-08T14:20:02.762Z,3.80
2023-01-08T14:25:07.729Z,3.82
2023-01-08T14:30:16.496Z,3.81
2023-01-08T14:35:24.429Z,3.82
2023-01-08T14:40:38.040Z,3.84
2023-01-08T14:45:47.664Z,3.84
2023-01-08T14:51:13.597Z,3.86
2023-01-08T14:56:20.096Z,3.86
2023-01-08T15:01:26.825Z,3.88
2023-01-08T15:06:31.271Z,3.87
2023-01-08T15:11:53.612Z,3.89
2023-01-08T15:17:08.099Z,3.92
2023-01-08T15:22:18.615Z,3.94
2023-01-08T15:27:21.475Z,3.95
2023-01-08T15:32:24.496Z,3.94
2023-01-08T15:37:27.792Z,3.95
2023-01-08T15:42:51.223Z,3.95
2023-01-08T15:47:54.514Z,3.94
2023-01-08T15:52:57.567Z,3.95
2023-01-08T15:58:00.822Z,3.94
2023-01-08T16:03:07.211Z,3.95
2023-01-08T16:08:10.955Z,3.96
2023-01-08T16:13:13.645Z,3.97
2023-01-08T16:18:16.382Z,4.00
2023-01-08T16:23:19.038Z,4.02
2023-01-08T16:28:21.736Z,4.00
2023-01-08T16:33:24.458Z,3.95
2023-01-08T16:38:27.668Z,3.91
2023-01-08T16:43:31.460Z,3.87
2023-01-08T16:48:34.153Z,3.88
2023-01-08T16:53:37.443Z,3.86
2023-01-08T16:58:40.163Z,3.80
2023-01-08T17:03:42.923Z,3.74
2023-01-08T17:08:45.969Z,3.66
2023-01-08T17:13:49.676Z,3.60
2023-01-08T17:18:52.378Z,3.54
2023-01-08T17:23:55.273Z,3.50
2023-01-08T17:28:58.603Z,3.47
2023-01-08T17:34:01.305Z,3.40
2023-01-08T17:39:04.428Z,3.36
2023-01-08T17:44:09.795Z,3.30
2023-01-08T17:49:15.351Z,3.26
2023-01-08T17:54:19.269Z,3.22
2023-01-08T17:59:22.173Z,3.20
2023-01-08T18:04:25.627Z,3.18
2023-01-08T18:09:28.395Z,3.15
2023-01-08T18:14:31.204Z,3.13
2023-01-08T18:19:33.884Z,3.12
2023-01-08T18:24:36.698Z,3.12
2023-01-08T18:29:39.392Z,3.08
2023-01-08T18:34:42.201Z,3.08
2023-01-08T18:39:44.996Z,3.04
2023-01-08T18:44:48.471Z,3.03
2023-01-08T18:49:55.005Z,3.03
2023-01-08T18:54:57.915Z,3.02
2023-01-08T19:00:00.708Z,3.01
2023-01-08T19:05:03.640Z,3.02
2023-01-08T19:10:06.533Z,3.01
2023-01-08T19:15:10.225Z,3.00
2023-01-08T19:20:13.154Z,2.99
2023-01-08T19:25:15.948Z,2.97
2023-01-08T19:30:18.934Z,2.96
2023-01-08T19:35:21.780Z,2.97
2023-01-08T19:40:24.432Z,2.97
2023-01-08T19:45:27.223Z,2.96
2023-01-08T19:50:34.252Z,2.97
2023-01-08T19:55:37.468Z,2.98
2023-01-08T20:00:40.830Z,2.99
2023-01-08T20:05:43.907Z,2.97
2023-01-08T20:10:46.684Z,2.96
2023-01-08T20:15:56.971Z,2.94
2023-01-08T20:21:08.836Z,2.91
2023-01-08T20:26:17.908Z,2.90
2023-01-08T20:31:22.711Z,2.90
2023-01-08T20:36:28.022Z,2.90
2023-01-08T20:41:30.830Z,2.92
2023-01-08T20:46:35.927Z,2.92
2023-01-08T20:51:44.117Z,2.94
2023-01-08T20:56:47.849Z,2.97
2023-01-08T21:01:50.714Z,2.99
2023-01-08T21:06:53.968Z,3.00
2023-01-08T21:11:56.706Z,3.01
2023-01-08T21:16:59.380Z,3.02
2023-01-08T21:22:02.077Z,3.03
2023-01-08T21:27:04.864Z,3.04
2023-01-08T21:32:08.074Z,3.06
2023-01-08T21:37:11.067Z,3.05
2023-01-08T21:42:33.132Z,3.07
2023-01-08T21:47:36.025Z,3.10
2023-01-08T21:52:57.429Z,3.09
2023-01-08T21:58:00.359Z,3.07
2023-01-08T22:03:03.077Z,3.06
2023-01-08T22:08:05.775Z,3.04
2023-01-08T22:13:08.582Z,3.06
2023-01-08T22:18:11.779Z,3.07
2023-01-08T22:23:14.480Z,3.09
2023-01-08T22:28:17.178Z,3.12
2023-01-08T22:33:19.979Z,3.12
2023-01-08T22:38:22.632Z,3.11
2023-01-08T22:43:25.778Z,3.14
2023-01-08T22:48:28.586Z,3.14
2023-01-08T22:53:31.556Z,3.14
2023-01-08T22:58:34.293Z,3.15
2023-01-08T23:03:37.017Z,3.17
2023-01-08T23:08:41.042Z,3.17
2023-01-08T23:13:44.541Z,3.17
2023-01-08T23:18:47.297Z,3.22
2023-01-08T23:23:50.431Z,3.25
2023-01-08T23:28:54.605Z,3.27
2023-01-08T23:33:58.102Z,3.29
2023-01-08T23:39:00.934Z,3.31
2023-01-08T23:44:07.194Z,3.30
2023-01-08T23:49:10.384Z,3.30
2023-01-08T23:54:13.753Z,3.29
2023-01-08T23:59:16.581Z,3.25
